sensor_id;sensor_type;location;lat;lon;timestamp;pressure;altitude;pressure_sealevel;temperature;humidity
43553;BME280;29153;42.696;23.218;2023-02-14T00:02:25;95867.65;;;-0.46;86.55
43553;BME280;29153;42.696;23.218;2023-02-14T00:04:52;95864.72;;;-0.47;86.67
43553;BME280;29153;42.696;23.218;2023-02-14T00:07:20;95872.04;;;-0.47;86.70
43553;BME280;29153;42.696;23.218;2023-02-14T00:09:47;95874.16;;;-0.46;86.20
43553;BME280;29153;42.696;23.218;2023-02-14T00:12:14;95877.16;;;-0.57;86.58
43553;BME280;29153;42.696;23.218;2023-02-14T00:14:42;95880.23;;;-0.54;86.86
43553;BME280;29153;42.696;23.218;2023-02-14T00:17:27;95878.27;;;-0.52;87.10
43553;BME280;29153;42.696;23.218;2023-02-14T00:19:55;95870.87;;;-0.40;87.70
43553;BME280;29153;42.696;23.218;2023-02-14T00:22:22;95883.67;;;-0.30;87.73
43553;BME280;29153;42.696;23.218;2023-02-14T00:24:49;95881.02;;;-0.04;87.54
43553;BME280;29153;42.696;23.218;2023-02-14T00:27:17;95886.26;;;0.15;87.46
43553;BME280;29153;42.696;23.218;2023-02-14T00:29:44;95880.09;;;0.31;87.61
43553;BME280;29153;42.696;23.218;2023-02-14T00:32:12;95876.17;;;0.50;86.67
43553;BME280;29153;42.696;23.218;2023-02-14T00:34:39;95878.83;;;0.60;86.08
43553;BME280;29153;42.696;23.218;2023-02-14T00:37:07;95875.16;;;0.69;85.76
43553;BME280;29153;42.696;23.218;2023-02-14T00:39:34;95871.84;;;0.75;85.05
43553;BME280;29153;42.696;23.218;2023-02-14T00:42:02;95877.99;;;0.78;85.24
43553;BME280;29153;42.696;23.218;2023-02-14T00:44:29;95878.09;;;0.85;85.39
43553;BME280;29153;42.696;23.218;2023-02-14T00:46:57;95869.86;;;0.92;85.03
43553;BME280;29153;42.696;23.218;2023-02-14T00:49:24;95881.38;;;0.98;84.92
43553;BME280;29153;42.696;23.218;2023-02-14T00:51:52;95885.52;;;1.07;84.07
43553;BME280;29153;42.696;23.218;2023-02-14T00:54:19;95877.54;;;1.04;84.00
43553;BME280;29153;42.696;23.218;2023-02-14T00:56:47;95868.25;;;1.16;83.86
43553;BME280;29153;42.696;23.218;2023-02-14T00:59:14;95859.38;;;1.11;83.92
43553;BME280;29153;42.696;23.218;2023-02-14T01:01:42;95856.87;;;1.03;84.12
43553;BME280;29153;42.696;23.218;2023-02-14T01:04:09;95862.58;;;1.02;84.06
43553;BME280;29153;42.696;23.218;2023-02-14T01:06:37;95858.66;;;1.02;84.15
43553;BME280;29153;42.696;23.218;2023-02-14T01:09:04;95860.36;;;1.10;83.66
43553;BME280;29153;42.696;23.218;2023-02-14T01:11:32;95856.34;;;1.03;83.87
43553;BME280;29153;42.696;23.218;2023-02-14T01:14:00;95853.39;;;1.06;83.41
43553;BME280;29153;42.696;23.218;2023-02-14T01:16:29;95850.47;;;1.05;83.60
43553;BME280;29153;42.696;23.218;2023-02-14T01:18:59;95854.10;;;1.15;83.33
43553;BME280;29153;42.696;23.218;2023-02-14T01:21:29;95849.33;;;1.18;83.12
43553;BME280;29153;42.696;23.218;2023-02-14T01:23:59;95848.24;;;1.13;83.26
43553;BME280;29153;42.696;23.218;2023-02-14T01:26:28;95842.47;;;1.07;83.39
43553;BME280;29153;42.696;23.218;2023-02-14T01:28:56;95846.56;;;1.16;83.47
43553;BME280;29153;42.696;23.218;2023-02-14T01:31:31;95833.02;;;1.16;82.84
43553;BME280;29153;42.696;23.218;2023-02-14T01:33:55;95839.70;;;1.19;82.85
43553;BME280;29153;42.696;23.218;2023-02-14T01:36:25;95837.52;;;1.22;82.87
43553;BME280;29153;42.696;23.218;2023-02-14T01:38:57;95834.16;;;1.18;83.01
43553;BME280;29153;42.696;23.218;2023-02-14T01:41:26;95830.62;;;1.15;82.92
43553;BME280;29153;42.696;23.218;2023-02-14T01:43:59;95824.04;;;1.19;82.96
43553;BME280;29153;42.696;23.218;2023-02-14T01:46:29;95820.56;;;1.22;82.13
43553;BME280;29153;42.696;23.218;2023-02-14T01:49:03;95823.28;;;1.14;82.61
43553;BME280;29153;42.696;23.218;2023-02-14T01:51:28;95814.81;;;1.12;82.37
43553;BME280;29153;42.696;23.218;2023-02-14T01:53:56;95811.05;;;1.15;82.23
43553;BME280;29153;42.696;23.218;2023-02-14T01:56:28;95813.33;;;1.14;82.37
43553;BME280;29153;42.696;23.218;2023-02-14T01:58:59;95811.28;;;1.20;82.13
43553;BME280;29153;42.696;23.218;2023-02-14T02:01:28;95809.63;;;1.23;82.02
43553;BME280;29153;42.696;23.218;2023-02-14T02:03:59;95805.45;;;1.18;82.19
43553;BME280;29153;42.696;23.218;2023-02-14T02:06:32;95806.70;;;1.22;82.47
43553;BME280;29153;42.696;23.218;2023-02-14T02:11:51;95801.86;;;1.19;82.19
43553;BME280;29153;42.696;23.218;2023-02-14T02:14:21;95806.52;;;1.23;82.06
43553;BME280;29153;42.696;23.218;2023-02-14T02:33:42;95790.11;;;1.19;81.47
43553;BME280;29153;42.696;23.218;2023-02-14T02:39:21;95781.20;;;1.03;81.69
43553;BME280;29153;42.696;23.218;2023-02-14T02:41:59;95773.61;;;0.97;82.05
43553;BME280;29153;42.696;23.218;2023-02-14T02:44:28;95768.30;;;0.90;82.24
43553;BME280;29153;42.696;23.218;2023-02-14T02:47:06;95770.67;;;0.96;82.19
43553;BME280;29153;42.696;23.218;2023-02-14T02:49:46;95761.60;;;0.92;82.19
43553;BME280;29153;42.696;23.218;2023-02-14T02:52:44;95773.83;;;0.91;82.12
43553;BME280;29153;42.696;23.218;2023-02-14T02:58:57;95772.09;;;0.73;82.68
43553;BME280;29153;42.696;23.218;2023-02-14T03:01:37;95776.55;;;0.69;82.93
43553;BME280;29153;42.696;23.218;2023-02-14T03:04:06;95770.19;;;0.71;82.78
43553;BME280;29153;42.696;23.218;2023-02-14T03:06:53;95763.30;;;0.74;82.67
43553;BME280;29153;42.696;23.218;2023-02-14T03:14:53;95769.64;;;0.61;83.29
43553;BME280;29153;42.696;23.218;2023-02-14T03:17:33;95768.93;;;0.53;83.51
43553;BME280;29153;42.696;23.218;2023-02-14T03:20:07;95758.38;;;0.50;83.49
43553;BME280;29153;42.696;23.218;2023-02-14T03:22:51;95762.31;;;0.61;83.10
43553;BME280;29153;42.696;23.218;2023-02-14T03:31:07;95746.01;;;0.63;82.85
43553;BME280;29153;42.696;23.218;2023-02-14T03:36:13;95732.33;;;0.61;82.78
43553;BME280;29153;42.696;23.218;2023-02-14T03:39:11;95741.22;;;0.56;82.80
43553;BME280;29153;42.696;23.218;2023-02-14T03:41:38;95686.02;;;0.12;82.96
43553;BME280;29153;42.696;23.218;2023-02-14T03:44:07;95740.77;;;0.37;83.23
43553;BME280;29153;42.696;23.218;2023-02-14T03:47:02;95742.20;;;0.40;83.14
43553;BME280;29153;42.696;23.218;2023-02-14T03:49:11;95748.80;;;0.32;83.35
43553;BME280;29153;42.696;23.218;2023-02-14T03:51:39;95746.56;;;0.29;83.51
43553;BME280;29153;42.696;23.218;2023-02-14T03:54:09;95740.67;;;0.31;83.52
43553;BME280;29153;42.696;23.218;2023-02-14T03:56:44;95733.86;;;0.30;83.67
43553;BME280;29153;42.696;23.218;2023-02-14T03:59:22;95732.89;;;0.27;83.66
43553;BME280;29153;42.696;23.218;2023-02-14T04:01:52;95721.22;;;0.23;83.68
43553;BME280;29153;42.696;23.218;2023-02-14T04:04:21;95721.59;;;0.20;83.65
43553;BME280;29153;42.696;23.218;2023-02-14T04:06:49;95715.61;;;0.15;84.14
43553;BME280;29153;42.696;23.218;2023-02-14T04:09:16;95716.84;;;0.05;84.42
43553;BME280;29153;42.696;23.218;2023-02-14T04:11:44;95718.80;;;0.07;84.57
43553;BME280;29153;42.696;23.218;2023-02-14T04:14:14;95719.07;;;0.12;84.59
43553;BME280;29153;42.696;23.218;2023-02-14T04:16:42;95722.42;;;0.02;84.71
43553;BME280;29153;42.696;23.218;2023-02-14T04:19:28;95723.47;;;0.11;84.75
43553;BME280;29153;42.696;23.218;2023-02-14T04:21:55;95723.38;;;0.19;84.46
43553;BME280;29153;42.696;23.218;2023-02-14T04:24:23;95717.36;;;0.19;84.35
43553;BME280;29153;42.696;23.218;2023-02-14T04:26:50;95713.12;;;0.18;84.55
43553;BME280;29153;42.696;23.218;2023-02-14T04:29:22;95715.64;;;0.26;84.36
43553;BME280;29153;42.696;23.218;2023-02-14T04:31:49;95711.73;;;0.26;84.20
43553;BME280;29153;42.696;23.218;2023-02-14T04:34:16;95724.86;;;0.32;83.86
43553;BME280;29153;42.696;23.218;2023-02-14T04:36:44;95721.81;;;0.29;83.82
43553;BME280;29153;42.696;23.218;2023-02-14T04:39:11;95716.28;;;0.28;83.92
43553;BME280;29153;42.696;23.218;2023-02-14T04:41:39;95716.55;;;0.33;83.80
43553;BME280;29153;42.696;23.218;2023-02-14T04:44:06;95715.03;;;0.38;83.26
43553;BME280;29153;42.696;23.218;2023-02-14T04:46:33;95710.87;;;0.44;82.96
43553;BME280;29153;42.696;23.218;2023-02-14T04:49:01;95700.71;;;0.49;82.43
43553;BME280;29153;42.696;23.218;2023-02-14T04:51:28;95700.05;;;0.51;82.21
43553;BME280;29153;42.696;23.218;2023-02-14T04:53:56;95688.93;;;0.53;81.97
43553;BME280;29153;42.696;23.218;2023-02-14T04:56:23;95692.83;;;0.42;82.14
43553;BME280;29153;42.696;23.218;2023-02-14T04:58:53;95691.00;;;0.43;82.20
43553;BME280;29153;42.696;23.218;2023-02-14T05:01:20;95696.52;;;0.33;82.55
43553;BME280;29153;42.696;23.218;2023-02-14T05:03:48;95693.38;;;0.38;82.38
43553;BME280;29153;42.696;23.218;2023-02-14T05:06:15;95695.06;;;0.45;82.15
43553;BME280;29153;42.696;23.218;2023-02-14T05:08:43;95701.14;;;0.42;82.38
43553;BME280;29153;42.696;23.218;2023-02-14T05:11:11;95696.03;;;0.59;81.89
43553;BME280;29153;42.696;23.218;2023-02-14T05:13:38;95703.31;;;0.64;81.81
43553;BME280;29153;42.696;23.218;2023-02-14T05:16:05;95699.45;;;0.70;81.16
43553;BME280;29153;42.696;23.218;2023-02-14T05:18:33;95697.17;;;0.71;81.31
43553;BME280;29153;42.696;23.218;2023-02-14T05:21:00;95697.44;;;0.76;81.04
43553;BME280;29153;42.696;23.218;2023-02-14T05:23:28;95703.52;;;0.83;80.91
43553;BME280;29153;42.696;23.218;2023-02-14T05:25:55;95693.46;;;0.80;80.80
43553;BME280;29153;42.696;23.218;2023-02-14T05:28:23;95691.90;;;0.75;81.07
43553;BME280;29153;42.696;23.218;2023-02-14T05:30:51;95702.19;;;0.73;80.98
43553;BME280;29153;42.696;23.218;2023-02-14T05:33:18;95694.77;;;0.80;81.05
43553;BME280;29153;42.696;23.218;2023-02-14T05:35:46;95698.42;;;0.75;81.18
43553;BME280;29153;42.696;23.218;2023-02-14T05:38:13;95699.08;;;0.73;81.45
43553;BME280;29153;42.696;23.218;2023-02-14T05:40:41;95696.07;;;0.80;81.44
43553;BME280;29153;42.696;23.218;2023-02-14T05:43:09;95699.92;;;0.84;80.98
43553;BME280;29153;42.696;23.218;2023-02-14T05:45:37;95690.12;;;0.97;80.71
43553;BME280;29153;42.696;23.218;2023-02-14T05:48:04;95687.75;;;0.91;80.79
43553;BME280;29153;42.696;23.218;2023-02-14T05:50:33;95679.73;;;0.82;81.40
43553;BME280;29153;42.696;23.218;2023-02-14T05:53:01;95684.34;;;0.80;81.50
43553;BME280;29153;42.696;23.218;2023-02-14T05:55:30;95687.23;;;0.81;81.39
43553;BME280;29153;42.696;23.218;2023-02-14T05:57:57;95689.23;;;0.79;81.58
43553;BME280;29153;42.696;23.218;2023-02-14T06:00:25;95690.30;;;0.85;81.42
43553;BME280;29153;42.696;23.218;2023-02-14T06:02:56;95680.86;;;0.84;81.38
43553;BME280;29153;42.696;23.218;2023-02-14T06:05:23;95681.17;;;0.96;80.98
43553;BME280;29153;42.696;23.218;2023-02-14T06:07:50;95687.69;;;0.96;80.94
43553;BME280;29153;42.696;23.218;2023-02-14T06:10:19;95687.55;;;0.82;81.25
43553;BME280;29153;42.696;23.218;2023-02-14T06:12:53;95686.51;;;0.87;81.36
43553;BME280;29153;42.696;23.218;2023-02-14T06:15:20;95686.77;;;0.93;81.22
43553;BME280;29153;42.696;23.218;2023-02-14T06:17:55;95689.44;;;0.88;81.32
43553;BME280;29153;42.696;23.218;2023-02-14T06:20:24;95692.80;;;0.93;81.25
43553;BME280;29153;42.696;23.218;2023-02-14T06:22:52;95696.44;;;0.99;80.93
43553;BME280;29153;42.696;23.218;2023-02-14T06:25:21;95692.55;;;1.09;80.56
43553;BME280;29153;42.696;23.218;2023-02-14T06:27:48;95697.10;;;1.11;80.49
43553;BME280;29153;42.696;23.218;2023-02-14T06:30:16;95702.69;;;1.19;80.64
43553;BME280;29153;42.696;23.218;2023-02-14T06:32:44;95709.75;;;1.25;80.80
43553;BME280;29153;42.696;23.218;2023-02-14T06:35:12;95641.05;;;0.97;80.88
43553;BME280;29153;42.696;23.218;2023-02-14T06:37:40;95700.75;;;1.49;80.41
43553;BME280;29153;42.696;23.218;2023-02-14T06:40:09;95699.48;;;1.66;80.02
43553;BME280;29153;42.696;23.218;2023-02-14T06:42:37;95699.34;;;1.74;79.31
43553;BME280;29153;42.696;23.218;2023-02-14T06:45:05;95699.30;;;1.84;78.80
43553;BME280;29153;42.696;23.218;2023-02-14T06:47:33;95663.24;;;1.56;78.76
43553;BME280;29153;42.696;23.218;2023-02-14T06:50:01;95699.89;;;1.97;79.27
43553;BME280;29153;42.696;23.218;2023-02-14T06:52:31;95702.74;;;2.02;78.92
43553;BME280;29153;42.696;23.218;2023-02-14T06:54:59;95620.09;;;1.77;78.57
43553;BME280;29153;42.696;23.218;2023-02-14T06:57:26;95690.14;;;2.29;78.26
43553;BME280;29153;42.696;23.218;2023-02-14T06:59:54;95685.43;;;2.36;77.86
43553;BME280;29153;42.696;23.218;2023-02-14T07:02:22;95691.97;;;2.36;77.73
43553;BME280;29153;42.696;23.218;2023-02-14T07:04:49;95691.88;;;2.33;77.55
43553;BME280;29153;42.696;23.218;2023-02-14T07:07:17;95689.22;;;2.44;77.78
43553;BME280;29153;42.696;23.218;2023-02-14T07:09:44;95687.47;;;2.40;77.43
43553;BME280;29153;42.696;23.218;2023-02-14T07:12:14;95679.34;;;2.39;78.35
43553;BME280;29153;42.696;23.218;2023-02-14T07:14:41;95676.81;;;2.35;78.27
43553;BME280;29153;42.696;23.218;2023-02-14T07:17:09;95678.61;;;2.35;78.57
43553;BME280;29153;42.696;23.218;2023-02-14T07:19:36;95678.80;;;2.33;78.48
43553;BME280;29153;42.696;23.218;2023-02-14T07:22:04;95651.19;;;2.00;78.79
43553;BME280;29153;42.696;23.218;2023-02-14T07:24:31;95686.80;;;2.25;79.56
43553;BME280;29153;42.696;23.218;2023-02-14T07:26:58;95686.06;;;2.38;79.31
43553;BME280;29153;42.696;23.218;2023-02-14T07:29:26;95686.64;;;2.33;79.32
43553;BME280;29153;42.696;23.218;2023-02-14T07:31:53;95688.91;;;2.43;79.17
43553;BME280;29153;42.696;23.218;2023-02-14T07:34:21;95682.87;;;2.42;79.48
43553;BME280;29153;42.696;23.218;2023-02-14T07:36:48;95690.14;;;2.53;78.94
43553;BME280;29153;42.696;23.218;2023-02-14T07:39:16;95695.15;;;2.48;79.45
43553;BME280;29153;42.696;23.218;2023-02-14T07:41:43;95688.11;;;2.49;80.18
43553;BME280;29153;42.696;23.218;2023-02-14T07:44:11;95686.08;;;2.44;80.50
43553;BME280;29153;42.696;23.218;2023-02-14T07:46:38;95678.17;;;2.31;81.36
43553;BME280;29153;42.696;23.218;2023-02-14T07:49:07;95687.61;;;2.49;81.01
43553;BME280;29153;42.696;23.218;2023-02-14T07:51:34;95697.84;;;2.44;80.82
43553;BME280;29153;42.696;23.218;2023-02-14T07:54:02;95692.19;;;2.34;81.61
43553;BME280;29153;42.696;23.218;2023-02-14T07:56:29;95682.41;;;2.32;81.80
43553;BME280;29153;42.696;23.218;2023-02-14T07:58:57;95690.48;;;2.37;82.20
43553;BME280;29153;42.696;23.218;2023-02-14T08:01:24;95698.95;;;2.39;82.17
43553;BME280;29153;42.696;23.218;2023-02-14T08:03:52;95701.56;;;2.39;82.50
43553;BME280;29153;42.696;23.218;2023-02-14T08:06:19;95700.63;;;2.36;82.78
43553;BME280;29153;42.696;23.218;2023-02-14T08:08:47;95702.56;;;2.38;83.01
43553;BME280;29153;42.696;23.218;2023-02-14T08:11:15;95705.61;;;2.48;82.42
43553;BME280;29153;42.696;23.218;2023-02-14T08:13:44;95711.86;;;2.47;82.78
43553;BME280;29153;42.696;23.218;2023-02-14T08:16:15;95709.17;;;2.34;83.53
43553;BME280;29153;42.696;23.218;2023-02-14T08:18:44;95718.19;;;2.49;82.77
43553;BME280;29153;42.696;23.218;2023-02-14T08:21:11;95720.78;;;2.25;83.09
43553;BME280;29153;42.696;23.218;2023-02-14T08:23:43;95712.47;;;2.32;82.75
43553;BME280;29153;42.696;23.218;2023-02-14T08:26:08;95715.42;;;2.40;82.92
43553;BME280;29153;42.696;23.218;2023-02-14T08:28:35;95717.83;;;2.35;83.11
43553;BME280;29153;42.696;23.218;2023-02-14T08:31:03;95722.51;;;2.28;83.39
43553;BME280;29153;42.696;23.218;2023-02-14T08:33:31;95721.30;;;2.31;83.87
43553;BME280;29153;42.696;23.218;2023-02-14T08:35:58;95717.52;;;2.34;83.83
43553;BME280;29153;42.696;23.218;2023-02-14T08:38:26;95713.41;;;2.35;84.53
43553;BME280;29153;42.696;23.218;2023-02-14T08:40:58;95719.70;;;2.47;83.78
43553;BME280;29153;42.696;23.218;2023-02-14T08:43:23;95720.70;;;2.46;83.69
43553;BME280;29153;42.696;23.218;2023-02-14T08:45:53;95714.09;;;2.33;83.89
43553;BME280;29153;42.696;23.218;2023-02-14T08:48:20;95721.62;;;2.32;84.23
43553;BME280;29153;42.696;23.218;2023-02-14T08:50:49;95719.80;;;2.26;84.84
43553;BME280;29153;42.696;23.218;2023-02-14T08:53:16;95726.75;;;2.29;85.00
43553;BME280;29153;42.696;23.218;2023-02-14T08:55:44;95726.24;;;2.13;85.51
43553;BME280;29153;42.696;23.218;2023-02-14T08:58:11;95727.87;;;2.14;85.84
43553;BME280;29153;42.696;23.218;2023-02-14T09:00:39;95724.47;;;2.20;85.71
43553;BME280;29153;42.696;23.218;2023-02-14T09:03:07;95716.52;;;2.17;86.31
43553;BME280;29153;42.696;23.218;2023-02-14T09:05:36;95722.84;;;2.19;86.08
43553;BME280;29153;42.696;23.218;2023-02-14T09:08:04;95724.21;;;2.25;85.76
43553;BME280;29153;42.696;23.218;2023-02-14T09:10:32;95720.13;;;2.16;85.64
43553;BME280;29153;42.696;23.218;2023-02-14T09:12:59;95706.67;;;2.19;85.56
43553;BME280;29153;42.696;23.218;2023-02-14T09:15:27;95714.52;;;2.19;85.49
43553;BME280;29153;42.696;23.218;2023-02-14T09:17:54;95711.32;;;2.24;85.15
43553;BME280;29153;42.696;23.218;2023-02-14T09:20:22;95710.41;;;2.21;85.22
43553;BME280;29153;42.696;23.218;2023-02-14T09:22:49;95696.77;;;2.25;85.22
43553;BME280;29153;42.696;23.218;2023-02-14T09:25:17;95702.56;;;2.38;84.47
43553;BME280;29153;42.696;23.218;2023-02-14T09:27:47;95695.79;;;2.33;84.54
43553;BME280;29153;42.696;23.218;2023-02-14T09:30:15;95694.47;;;2.50;84.32
43553;BME280;29153;42.696;23.218;2023-02-14T09:32:42;95706.06;;;2.58;83.31
43553;BME280;29153;42.696;23.218;2023-02-14T09:35:10;95713.98;;;2.48;83.37
43553;BME280;29153;42.696;23.218;2023-02-14T09:37:55;95715.84;;;2.60;83.46
43553;BME280;29153;42.696;23.218;2023-02-14T09:40:40;95706.98;;;2.61;83.21
43553;BME280;29153;42.696;23.218;2023-02-14T09:43:23;95708.28;;;2.61;82.60
43553;BME280;29153;42.696;23.218;2023-02-14T09:45:55;95713.31;;;2.56;82.76
43553;BME280;29153;42.696;23.218;2023-02-14T09:48:27;95707.06;;;2.34;83.14
43553;BME280;29153;42.696;23.218;2023-02-14T09:51:01;95691.53;;;2.25;83.67
43553;BME280;29153;42.696;23.218;2023-02-14T09:53:35;95702.09;;;2.28;83.74
43553;BME280;29153;42.696;23.218;2023-02-14T09:56:16;95704.09;;;2.43;83.34
43553;BME280;29153;42.696;23.218;2023-02-14T10:01:45;95690.31;;;2.45;82.21
43553;BME280;29153;42.696;23.218;2023-02-14T10:04:31;95688.09;;;2.42;81.82
43553;BME280;29153;42.696;23.218;2023-02-14T10:15:40;95681.00;;;2.77;80.03
43553;BME280;29153;42.696;23.218;2023-02-14T10:18:13;95681.49;;;2.77;80.12
43553;BME280;29153;42.696;23.218;2023-02-14T10:20:43;95672.16;;;2.85;79.54
43553;BME280;29153;42.696;23.218;2023-02-14T10:23:38;95681.53;;;2.90;79.09
43553;BME280;29153;42.696;23.218;2023-02-14T10:26:11;95680.23;;;2.96;78.60
43553;BME280;29153;42.696;23.218;2023-02-14T10:28:43;95680.95;;;2.94;78.85
43553;BME280;29153;42.696;23.218;2023-02-14T10:31:18;95691.59;;;2.93;78.07
43553;BME280;29153;42.696;23.218;2023-02-14T10:33:52;95680.82;;;2.92;77.73
43553;BME280;29153;42.696;23.218;2023-02-14T10:45:14;95683.56;;;2.64;78.46
43553;BME280;29153;42.696;23.218;2023-02-14T10:47:54;95687.25;;;2.52;79.39
43553;BME280;29153;42.696;23.218;2023-02-14T10:56:05;95681.27;;;2.65;79.87
43553;BME280;29153;42.696;23.218;2023-02-14T10:58:35;95677.20;;;2.62;79.56
43553;BME280;29153;42.696;23.218;2023-02-14T11:01:14;95669.58;;;2.61;80.10
43553;BME280;29153;42.696;23.218;2023-02-14T11:03:59;95661.78;;;2.57;80.28
43553;BME280;29153;42.696;23.218;2023-02-14T11:06:30;95659.44;;;2.68;79.66
43553;BME280;29153;42.696;23.218;2023-02-14T11:08:58;95660.61;;;2.59;79.33
43553;BME280;29153;42.696;23.218;2023-02-14T11:11:40;95654.38;;;2.60;78.99
43553;BME280;29153;42.696;23.218;2023-02-14T11:14:23;95656.33;;;2.69;78.92
43553;BME280;29153;42.696;23.218;2023-02-14T11:16:51;95658.31;;;2.67;79.04
43553;BME280;29153;42.696;23.218;2023-02-14T11:19:25;95655.96;;;2.85;77.82
43553;BME280;29153;42.696;23.218;2023-02-14T11:21:54;95650.26;;;2.99;77.23
43553;BME280;29153;42.696;23.218;2023-02-14T11:24:36;95670.17;;;3.00;76.56
43553;BME280;29153;42.696;23.218;2023-02-14T11:29:45;95660.51;;;2.94;75.82
43553;BME280;29153;42.696;23.218;2023-02-14T11:32:19;95657.55;;;2.80;76.13
43553;BME280;29153;42.696;23.218;2023-02-14T11:35:15;95648.39;;;2.80;75.91
43553;BME280;29153;42.696;23.218;2023-02-14T11:37:44;95641.97;;;2.95;75.91
43553;BME280;29153;42.696;23.218;2023-02-14T11:40:31;95643.50;;;3.00;75.61
43553;BME280;29153;42.696;23.218;2023-02-14T11:43:46;95637.86;;;2.90;75.17
43553;BME280;29153;42.696;23.218;2023-02-14T11:45:35;95637.48;;;3.06;75.27
43553;BME280;29153;42.696;23.218;2023-02-14T11:48:11;95642.59;;;3.04;74.80
43553;BME280;29153;42.696;23.218;2023-02-14T11:50:37;95633.74;;;3.05;75.07
43553;BME280;29153;42.696;23.218;2023-02-14T11:53:09;95634.76;;;3.17;74.69
43553;BME280;29153;42.696;23.218;2023-02-14T11:55:39;95637.01;;;3.33;73.15
43553;BME280;29153;42.696;23.218;2023-02-14T11:58:10;95637.01;;;3.33;73.39
43553;BME280;29153;42.696;23.218;2023-02-14T12:00:39;95631.97;;;3.45;72.91
43553;BME280;29153;42.696;23.218;2023-02-14T12:03:14;95622.38;;;3.21;73.95
43553;BME280;29153;42.696;23.218;2023-02-14T12:05:46;95625.50;;;3.14;74.78
43553;BME280;29153;42.696;23.218;2023-02-14T12:08:22;95620.18;;;3.12;74.14
43553;BME280;29153;42.696;23.218;2023-02-14T12:10:59;95613.02;;;3.23;74.15
43553;BME280;29153;42.696;23.218;2023-02-14T12:13:20;95612.23;;;3.29;74.58
43553;BME280;29153;42.696;23.218;2023-02-14T12:15:54;95601.24;;;3.03;74.74
43553;BME280;29153;42.696;23.218;2023-02-14T12:18:28;95604.06;;;3.15;75.09
43553;BME280;29153;42.696;23.218;2023-02-14T12:20:59;95599.42;;;3.30;74.31
43553;BME280;29153;42.696;23.218;2023-02-14T12:28:48;95597.61;;;3.31;73.78
43553;BME280;29153;42.696;23.218;2023-02-14T12:31:16;95598.94;;;3.37;74.17
43553;BME280;29153;42.696;23.218;2023-02-14T12:33:43;95592.88;;;3.30;74.57
43553;BME280;29153;42.696;23.218;2023-02-14T12:36:20;95590.56;;;3.31;74.61
43553;BME280;29153;42.696;23.218;2023-02-14T12:38:52;95583.33;;;3.33;74.46
43553;BME280;29153;42.696;23.218;2023-02-14T12:41:34;95585.63;;;3.26;74.80
43553;BME280;29153;42.696;23.218;2023-02-14T12:47:06;95585.55;;;3.16;74.99
43553;BME280;29153;42.696;23.218;2023-02-14T13:04:04;95582.91;;;3.23;75.34
43553;BME280;29153;42.696;23.218;2023-02-14T13:06:40;95575.75;;;3.34;75.80
43553;BME280;29153;42.696;23.218;2023-02-14T13:20:25;95569.19;;;3.47;76.02
43553;BME280;29153;42.696;23.218;2023-02-14T13:22:48;95563.06;;;3.44;76.40
43553;BME280;29153;42.696;23.218;2023-02-14T13:25:23;95561.64;;;3.48;76.19
43553;BME280;29153;42.696;23.218;2023-02-14T13:27:48;95562.12;;;3.61;75.82
43553;BME280;29153;42.696;23.218;2023-02-14T13:30:32;95560.84;;;3.54;75.92
43553;BME280;29153;42.696;23.218;2023-02-14T13:32:59;95552.08;;;3.38;76.37
43553;BME280;29153;42.696;23.218;2023-02-14T13:35:28;95555.82;;;3.46;77.02
43553;BME280;29153;42.696;23.218;2023-02-14T13:37:59;95552.19;;;3.41;76.33
43553;BME280;29153;42.696;23.218;2023-02-14T13:40:27;95551.48;;;3.36;76.59
43553;BME280;29153;42.696;23.218;2023-02-14T13:42:57;95551.58;;;3.26;77.27
43553;BME280;29153;42.696;23.218;2023-02-14T13:48:05;95545.44;;;3.36;76.50
43553;BME280;29153;42.696;23.218;2023-02-14T13:50:56;95547.37;;;3.38;76.88
43553;BME280;29153;42.696;23.218;2023-02-14T13:55:59;95547.57;;;3.23;76.93
43553;BME280;29153;42.696;23.218;2023-02-14T13:58:29;95557.73;;;3.22;77.09
43553;BME280;29153;42.696;23.218;2023-02-14T14:00:57;95551.39;;;3.27;76.85
43553;BME280;29153;42.696;23.218;2023-02-14T14:06:09;95557.31;;;3.38;76.48
43553;BME280;29153;42.696;23.218;2023-02-14T14:08:45;95556.70;;;3.43;76.28
43553;BME280;29153;42.696;23.218;2023-02-14T14:16:39;95559.26;;;3.34;77.39
43553;BME280;29153;42.696;23.218;2023-02-14T14:22:07;95563.06;;;3.31;77.26
43553;BME280;29153;42.696;23.218;2023-02-14T14:24:39;95569.52;;;3.22;77.73
43553;BME280;29153;42.696;23.218;2023-02-14T14:27:40;95562.87;;;3.26;77.31
43553;BME280;29153;42.696;23.218;2023-02-14T14:29:55;95555.84;;;3.20;77.20
43553;BME280;29153;42.696;23.218;2023-02-14T14:32:35;95556.64;;;3.20;77.06
43553;BME280;29153;42.696;23.218;2023-02-14T14:37:55;95555.13;;;3.15;77.71
43553;BME280;29153;42.696;23.218;2023-02-14T14:40:34;95549.30;;;3.20;77.83
43553;BME280;29153;42.696;23.218;2023-02-14T14:43:13;95539.62;;;3.14;77.66
43553;BME280;29153;42.696;23.218;2023-02-14T14:45:45;95522.30;;;3.19;77.72
43553;BME280;29153;42.696;23.218;2023-02-14T14:48:26;95527.73;;;3.05;78.13
43553;BME280;29153;42.696;23.218;2023-02-14T14:50:49;95536.80;;;3.15;78.10
43553;BME280;29153;42.696;23.218;2023-02-14T14:58:49;95529.75;;;2.96;78.27
43553;BME280;29153;42.696;23.218;2023-02-14T15:01:29;95529.87;;;2.99;78.22
43553;BME280;29153;42.696;23.218;2023-02-14T15:06:47;95531.38;;;2.91;78.99
43553;BME280;29153;42.696;23.218;2023-02-14T15:09:23;95494.33;;;2.67;78.13
43553;BME280;29153;42.696;23.218;2023-02-14T15:11:52;95527.13;;;2.96;78.31
43553;BME280;29153;42.696;23.218;2023-02-14T15:14:40;95532.59;;;2.95;78.23
43553;BME280;29153;42.696;23.218;2023-02-14T15:17:26;95538.91;;;2.96;78.08
43553;BME280;29153;42.696;23.218;2023-02-14T15:19:56;95541.03;;;2.97;77.98
43553;BME280;29153;42.696;23.218;2023-02-14T15:22:34;95542.02;;;2.96;77.64
43553;BME280;29153;42.696;23.218;2023-02-14T15:24:59;95541.84;;;2.91;78.00
43553;BME280;29153;42.696;23.218;2023-02-14T15:27:41;95546.38;;;2.99;77.46
43553;BME280;29153;42.696;23.218;2023-02-14T15:30:28;95541.63;;;2.92;77.95